Taylor Fork

This weather station provides wind speed, gust or max wind speed, and wind direction at 9460 ft. near Pika Point above Sunlight Basin.  

This data can be used with temperature and precipitation data from the Carrot Basin SNOTEL site. If the data below is not displayed or up to date, view data here.

Elevation
9460ft
Jump to table bottom
Date Time Temperature
deg F
RH, % Wind Speed Wind Gust Wind Direction
02/08/23 20:00 6.8 92 13 21 N - 347
02/08/23 19:00 6.7 92 13 26 N - 345
02/08/23 18:00 7.3 92 16 29 N - 343
02/08/23 17:00 7.6 92 18 31 N - 340
02/08/23 16:00 8.6 92 14 26 N - 338
02/08/23 15:00 8.3 92 17 29 N - 340
02/08/23 14:00 9.8 91 20 35 NW - 330
02/08/23 13:00 8.4 91 19 34 NW - 333
02/08/23 12:00 7.8 92 16 33 NW - 337
02/08/23 11:00 7.8 92 8 23 NW - 327
02/08/23 10:00 8.3 92 7 16 N - 340
02/08/23 09:00 10.8 93 7 15 NW - 295
02/08/23 08:00 11.9 94 9 17 SW - 236
02/08/23 07:00 12.0 94 12 19 SW - 219
02/08/23 06:00 11.7 94 14 27 SW - 233
02/08/23 05:00 12.5 94 13 23 SW - 240
02/08/23 04:00 12.6 94 10 24 SW - 219
02/08/23 03:00 12.4 94 10 17 S - 194
02/08/23 02:00 13.0 94 11 19 SW - 211
02/08/23 01:00 13.3 94 14 24 SW - 208
02/08/23 00:00 13.0 94 13 19 SW - 211
02/07/23 23:00 12.8 94 14 18 S - 202
02/07/23 22:00 12.1 94 16 24 S - 184
02/07/23 21:00 11.9 94 17 23 S - 194
02/07/23 20:00 12.3 94 18 24 S - 187
02/07/23 19:00 12.4 94 14 19 SW - 216
02/07/23 18:00 13.7 94 14 23 SW - 218
02/07/23 17:00 13.6 94 14 22 SW - 209
02/07/23 16:00 14.6 94 14 19 S - 185
02/07/23 15:00 16.2 94 14 20 S - 183
02/07/23 14:00 15.0 94 14 20 SW - 208
02/07/23 13:00 16.7 94 14 19 SW - 209
02/07/23 12:00 16.3 94 11 19 S - 187
02/07/23 11:00 17.7 94 10 16 SW - 237
02/07/23 10:00 16.2 94 11 19 SW - 246
02/07/23 09:00 13.6 94 12 21 SW - 244
02/07/23 08:00 15.4 95 11 22 W - 270
02/07/23 07:00 15.8 95 10 20 SW - 240
02/07/23 06:00 15.3 95 11 21 W - 257
02/07/23 05:00 16.3 95 11 19 W - 264
02/07/23 04:00 15.8 95 10 16 SW - 230
02/07/23 03:00 14.6 95 8 13 SW - 222
02/07/23 02:00 13.8 94 10 16 SW - 239
02/07/23 01:00 15.6 95 13 20 W - 284
02/07/23 00:00 15.3 95 11 20 W - 271
02/06/23 23:00 15.7 95 8 16 W - 263
02/06/23 22:00 15.4 95 12 20 W - 285
02/06/23 21:00 14.4 94 8 16 W - 267
02/06/23 20:00 15.2 95 10 18 NW - 306
02/06/23 19:00 15.4 95 9 14 NW - 307